Terminal Aerodrome Forecast
Issued by NWS Memphis, TN

Home | Current Version | Previous Version | Text Only | Print | Product List | Glossary On
Versions: 1 2 3 4 5 6 7 8 9 10 11 12 13 14
000
FTUS44 KMEG 020500
TAFJBR
TAF
KJBR 020524Z 0206/0306 16004KT P6SM BKN060
     FM020900 15005KT P6SM BKN040
     FM021300 18011KT P6SM VCSH SCT020 BKN040
      TEMPO 0213/0217 BKN020 OVC040
     FM021700 20015G22KT P6SM VCTS SCT035CB BKN050
     FM030000 20010KT P6SM VCTS BKN040CB BKN150
      TEMPO 0303/0306 3SM TSRA OVC015CB=

USA.gov is the U.S. government's official web portal to all federal, state and local government web resources and services.